Time;durP1;ratioP1;P1;durP2;ratioP2;P2;SDS_P1;SDS_P2;PMS_P1;PMS_P2;Temp;Humidity;BMP_temperature;BMP_pressure;BME280_temperature;BME280_humidity;BME280_pressure;Samples;Min_cycle;Max_cycle;Signal;HPM_P1;HPM_P2
2021/09/12 00:01:36;;;;;;;2.70;1.20;;;;;;;15.57;72.68;100865.75;5024235;28;20034;-74
2021/09/12 00:04:02;;;;;;;4.15;1.25;;;;;;;15.57;72.63;100865.75;5023348;28;20034;-73
2021/09/12 00:06:27;;;;;;;3.08;1.00;;;;;;;15.54;72.78;100870.03;5009553;28;20435;-74
2021/09/12 00:08:53;;;;;;;2.47;1.25;;;;;;;15.52;72.80;100868.72;5026441;28;20049;-74
2021/09/12 00:11:19;;;;;;;2.70;1.42;;;;;;;15.49;72.61;100858.97;5001651;28;20061;-74
2021/09/12 00:13:44;;;;;;;3.67;1.33;;;;;;;15.42;73.14;100867.81;5015127;28;20033;-74
2021/09/12 00:16:09;;;;;;;2.33;1.15;;;;;;;15.40;73.20;100869.28;5024770;28;20083;-74
2021/09/12 00:18:35;;;;;;;4.53;1.25;;;;;;;15.39;73.25;100865.66;5022974;28;20069;-74
2021/09/12 00:21:00;;;;;;;1.75;1.08;;;;;;;15.36;73.62;100860.69;5025309;28;20084;-74
2021/09/12 00:23:26;;;;;;;2.00;1.10;;;;;;;15.34;73.56;100851.78;5021535;28;20029;-73
2021/09/12 00:25:51;;;;;;;1.63;1.10;;;;;;;15.34;73.71;100848.97;5003759;28;20021;-74
2021/09/12 00:28:17;;;;;;;3.15;1.70;;;;;;;15.33;73.66;100849.31;4989395;28;20437;-74
2021/09/12 00:30:42;;;;;;;2.92;1.40;;;;;;;15.34;73.99;100846.19;5019416;28;20033;-74
2021/09/12 00:33:08;;;;;;;2.17;1.20;;;;;;;15.33;74.27;100852.94;5021172;28;20049;-76
2021/09/12 00:35:33;;;;;;;4.05;1.17;;;;;;;15.35;74.52;100847.84;5029871;28;20040;-76
2021/09/12 00:37:59;;;;;;;2.22;1.33;;;;;;;15.36;74.59;100848.69;5024120;28;20053;-75
2021/09/12 00:40:24;;;;;;;3.38;1.30;;;;;;;15.33;74.15;100844.53;5022855;28;20029;-76
2021/09/12 00:42:50;;;;;;;2.72;1.20;;;;;;;15.34;74.19;100840.59;5017629;28;20367;-76
2021/09/12 00:45:16;;;;;;;3.95;1.17;;;;;;;15.38;74.55;100850.00;5028547;28;20048;-76
2021/09/12 00:47:41;;;;;;;2.03;1.10;;;;;;;15.39;74.48;100842.44;5011523;28;20029;-76
2021/09/12 00:50:07;;;;;;;2.47;1.40;;;;;;;15.41;74.11;100851.34;5002218;28;20033;-77
2021/09/12 00:52:33;;;;;;;2.20;1.30;;;;;;;15.37;74.42;100851.13;5019317;28;20057;-76
2021/09/12 00:54:58;;;;;;;3.60;1.40;;;;;;;15.36;74.72;100840.28;5026262;28;20033;-76
2021/09/12 00:57:24;;;;;;;1.98;1.30;;;;;;;15.36;74.58;100848.69;5017236;28;20037;-76
2021/09/12 00:59:50;;;;;;;4.40;1.33;;;;;;;15.35;74.59;100841.41;5040645;28;20041;-77
2021/09/12 01:02:18;;;;;;;3.03;1.10;;;;;;;15.34;74.27;100839.75;5017582;28;20037;-77
2021/09/12 01:04:43;;;;;;;4.28;1.30;;;;;;;15.31;74.30;100844.03;5025829;28;20088;-77
2021/09/12 01:07:09;;;;;;;2.08;1.30;;;;;;;15.30;74.26;100838.75;5027090;28;20034;-76
2021/09/12 01:09:36;;;;;;;1.65;1.20;;;;;;;15.31;74.23;100840.41;5023578;28;20109;-77
2021/09/12 01:12:02;;;;;;;2.80;1.10;;;;;;;15.26;74.57;100829.34;5025547;28;20040;-76
2021/09/12 01:14:28;;;;;;;1.52;1.17;;;;;;;15.24;74.38;100835.25;4998145;28;20021;-76
2021/09/12 01:16:54;;;;;;;2.80;1.30;;;;;;;15.22;74.30;100826.34;4999288;28;20041;-76
2021/09/12 01:19:20;;;;;;;3.38;1.35;;;;;;;15.22;74.76;100828.31;5027303;28;20037;-76
2021/09/12 01:21:45;;;;;;;2.47;1.33;;;;;;;15.18;74.72;100826.16;5025704;28;20034;-77
2021/09/12 01:24:11;;;;;;;4.22;1.65;;;;;;;15.16;75.16;100827.63;5003695;28;20091;-76
2021/09/12 01:26:36;;;;;;;2.38;1.40;;;;;;;15.15;75.30;100831.56;5031675;28;20144;-76
2021/09/12 01:29:02;;;;;;;1.88;1.10;;;;;;;15.14;75.18;100829.91;5040963;28;20076;-77
2021/09/12 01:31:29;;;;;;;2.97;1.27;;;;;;;15.14;75.16;100824.31;5030727;28;20025;-76
2021/09/12 01:33:55;;;;;;;1.75;1.27;;;;;;;15.13;75.15;100823.50;5031674;28;20026;-76
2021/09/12 01:36:21;;;;;;;3.47;1.30;;;;;;;15.14;75.38;100827.09;5032634;28;20033;-76
2021/09/12 01:38:47;;;;;;;3.60;1.20;;;;;;;15.11;75.11;100824.94;5020661;28;20486;-77
2021/09/12 01:41:12;;;;;;;4.18;1.40;;;;;;;15.14;75.58;100822.34;5014166;28;20025;-76
2021/09/12 01:43:51;;;;;;;2.17;1.23;;;;;;;15.10;75.32;100826.06;5025508;28;20556;-76
2021/09/12 01:46:17;;;;;;;2.25;1.10;;;;;;;15.11;75.06;100816.56;5024522;28;20118;-76
2021/09/12 01:48:42;;;;;;;2.15;1.40;;;;;;;15.08;75.56;100828.38;5031498;28;20041;-76
2021/09/12 01:51:08;;;;;;;3.08;1.30;;;;;;;15.05;75.73;100815.03;5031785;28;20041;-76
2021/09/12 01:53:34;;;;;;;3.92;1.17;;;;;;;15.06;75.48;100814.69;5022300;28;20029;-76
2021/09/12 01:55:59;;;;;;;2.40;1.40;;;;;;;15.04;75.27;100813.38;5032701;28;20053;-77
2021/09/12 01:58:28;;;;;;;2.00;1.50;;;;;;;15.00;75.36;100817.94;5019773;28;20034;-77
2021/09/12 02:00:53;;;;;;;2.13;1.38;;;;;;;15.00;75.66;100812.34;5029439;28;20105;-77
2021/09/12 02:03:19;;;;;;;2.35;1.10;;;;;;;15.00;75.17;100812.34;5011542;28;20034;-77
2021/09/12 02:05:44;;;;;;;2.55;1.10;;;;;;;14.94;75.23;100811.66;4983190;28;20029;-77
2021/09/12 02:08:10;;;;;;;2.85;1.27;;;;;;;14.93;75.22;100812.78;5033594;28;20063;-77
2021/09/12 02:10:35;;;;;;;1.90;1.30;;;;;;;14.92;75.18;100811.94;5035784;28;20493;-76
2021/09/12 02:13:01;;;;;;;2.20;1.35;;;;;;;14.90;75.18;100817.03;5032492;28;20501;-77
2021/09/12 02:15:26;;;;;;;2.35;1.40;;;;;;;14.88;75.38;100813.75;5024523;28;20402;-77
2021/09/12 02:17:52;;;;;;;2.38;1.02;;;;;;;14.85;75.30;100806.00;5033026;28;20025;-77
2021/09/12 02:20:17;;;;;;;2.72;1.20;;;;;;;14.88;75.64;100805.34;5005529;28;20493;-76
2021/09/12 02:22:43;;;;;;;2.95;1.10;;;;;;;14.85;75.20;100811.59;5010555;28;20040;-76
2021/09/12 02:25:09;;;;;;;2.55;1.38;;;;;;;14.79;75.90;100806.41;5029606;28;20026;-76
2021/09/12 02:27:34;;;;;;;2.13;1.30;;;;;;;14.80;75.85;100813.66;5028767;28;20029;-76
2021/09/12 02:30:00;;;;;;;3.10;1.17;;;;;;;14.75;75.49;100818.22;5043450;28;20038;-77
2021/09/12 02:32:25;;;;;;;2.75;1.40;;;;;;;14.75;75.50;100809.00;5013104;28;20034;-76
2021/09/12 02:34:51;;;;;;;1.45;1.10;;;;;;;14.76;75.53;100813.44;4990886;28;20026;-77
2021/09/12 02:37:17;;;;;;;2.22;1.35;;;;;;;14.72;75.52;100807.66;5034920;28;20432;-77
2021/09/12 02:39:42;;;;;;;2.20;1.20;;;;;;;14.70;75.61;100809.94;5035900;28;20034;-76
2021/09/12 02:42:08;;;;;;;2.65;1.40;;;;;;;14.71;76.15;100816.38;5020566;28;20504;-77
2021/09/12 02:44:33;;;;;;;2.92;1.30;;;;;;;14.67;76.18;100815.34;5030873;28;20029;-76
2021/09/12 02:46:58;;;;;;;2.47;1.40;;;;;;;14.64;76.04;100815.97;5022596;28;20036;-76
2021/09/12 02:49:24;;;;;;;1.40;1.30;;;;;;;14.66;76.40;100817.31;5035171;28;20047;-76
2021/09/12 02:51:49;;;;;;;2.05;1.50;;;;;;;14.66;76.35;100810.91;5034689;28;20429;-76
2021/09/12 02:54:15;;;;;;;1.45;1.35;;;;;;;14.60;76.23;100809.34;5035708;28;20037;-76
2021/09/12 02:56:40;;;;;;;1.65;1.30;;;;;;;14.62;76.34;100812.66;5030364;28;20088;-76
2021/09/12 02:59:06;;;;;;;1.67;1.20;;;;;;;14.58;76.11;100803.25;5029909;28;20030;-76
2021/09/12 03:01:31;;;;;;;3.45;1.23;;;;;;;14.56;75.98;100802.75;5035588;28;20030;-76
2021/09/12 03:03:57;;;;;;;2.75;1.73;;;;;;;14.56;75.99;100802.75;5035697;28;20036;-77
2021/09/12 03:06:22;;;;;;;1.75;1.50;;;;;;;14.53;76.19;100805.00;5034136;28;20037;-77
2021/09/12 03:08:48;;;;;;;2.58;1.40;;;;;;;14.51;75.93;100807.28;5023543;28;20042;-77
2021/09/12 03:11:13;;;;;;;3.28;1.50;;;;;;;14.50;76.08;100805.63;5024291;28;20038;-77
2021/09/12 03:13:39;;;;;;;2.47;1.48;;;;;;;14.47;76.22;100806.25;5030527;28;20079;-77
2021/09/12 03:16:04;;;;;;;2.15;1.30;;;;;;;14.42;76.32;100806.34;5025547;28;20048;-77
2021/09/12 03:18:30;;;;;;;3.85;1.40;;;;;;;14.40;76.16;100811.44;5018329;28;20037;-77
2021/09/12 03:20:55;;;;;;;3.50;1.58;;;;;;;14.39;75.99;100806.97;5034049;28;20037;-77
2021/09/12 03:23:21;;;;;;;2.00;1.40;;;;;;;14.36;76.38;100807.59;5017924;28;20037;-77
2021/09/12 03:25:46;;;;;;;2.83;1.73;;;;;;;14.38;76.35;100808.13;5000578;28;20045;-77
2021/09/12 03:28:12;;;;;;;1.73;1.30;;;;;;;14.29;76.27;100810.84;5028182;28;20044;-76
2021/09/12 03:30:37;;;;;;;2.63;1.30;;;;;;;14.26;76.56;100811.47;5029804;28;20152;-77
2021/09/12 03:33:03;;;;;;;3.15;1.45;;;;;;;14.23;76.32;100811.22;5028407;28;20029;-77
2021/09/12 03:35:28;;;;;;;2.47;1.50;;;;;;;14.20;76.64;100811.84;5006796;28;20160;-77
2021/09/12 03:37:54;;;;;;;2.35;1.45;;;;;;;14.15;76.67;100815.59;5030520;28;20533;-77
2021/09/12 03:40:19;;;;;;;5.30;1.75;;;;;;;14.18;76.43;100808.53;5032232;28;20037;-77
2021/09/12 03:42:45;;;;;;;2.47;1.40;;;;;;;14.09;76.48;100805.66;5014937;28;20517;-77
2021/09/12 03:45:10;;;;;;;3.33;1.50;;;;;;;14.07;76.63;100816.31;5042022;28;20485;-76
2021/09/12 03:47:36;;;;;;;3.15;1.40;;;;;;;14.04;76.53;100814.97;5027582;28;20385;-77
2021/09/12 03:50:02;;;;;;;2.55;1.50;;;;;;;14.02;76.74;100808.88;5029402;28;20092;-77
2021/09/12 03:52:27;;;;;;;2.90;1.27;;;;;;;13.99;76.80;100812.28;5035674;28;20477;-76
2021/09/12 03:54:53;;;;;;;2.55;1.42;;;;;;;13.95;76.60;100800.06;5023635;28;20025;-76
2021/09/12 03:57:20;;;;;;;2.17;1.23;;;;;;;13.93;76.66;100798.72;5033361;28;20033;-77
2021/09/12 03:59:45;;;;;;;3.55;1.38;;;;;;;13.89;76.76;100792.94;5029005;28;20100;-76
2021/09/12 04:02:11;;;;;;;1.98;1.20;;;;;;;13.88;76.69;100790.47;5034574;28;20045;-77
2021/09/12 04:04:36;;;;;;;2.03;1.20;;;;;;;13.80;76.89;100789.22;5029581;28;20030;-77
2021/09/12 04:07:02;;;;;;;2.47;1.38;;;;;;;13.80;76.96;100787.25;5009946;28;20390;-77
2021/09/12 04:09:27;;;;;;;1.95;1.20;;;;;;;13.76;77.06;100779.78;5025884;28;20029;-77
2021/09/12 04:11:53;;;;;;;3.67;1.20;;;;;;;13.77;77.00;100787.88;5035664;28;20029;-76
2021/09/12 04:14:18;;;;;;;2.15;1.30;;;;;;;13.74;77.08;100776.50;5028778;28;20541;-77
2021/09/12 04:16:44;;;;;;;2.35;1.60;;;;;;;13.71;77.10;100777.13;5030051;28;20034;-76
2021/09/12 04:19:11;;;;;;;1.73;1.20;;;;;;;13.68;76.71;100780.50;5010404;28;20040;-77
2021/09/12 04:21:36;;;;;;;2.08;1.30;;;;;;;13.66;76.88;100797.56;5028224;28;20442;-76
2021/09/12 04:24:01;;;;;;;2.50;1.77;;;;;;;13.65;77.06;100787.56;5027370;28;20044;-77
2021/09/12 04:26:27;;;;;;;1.83;1.52;;;;;;;13.63;77.04;100795.41;5007975;28;20025;-76
2021/09/12 04:28:53;;;;;;;3.05;1.65;;;;;;;13.62;77.08;100790.94;5050968;28;20026;-76
2021/09/12 04:31:18;;;;;;;2.95;1.50;;;;;;;13.61;76.70;100801.28;4988286;28;20042;-76
2021/09/12 04:33:43;;;;;;;1.77;1.58;;;;;;;13.61;76.71;100808.81;5031333;28;20047;-76
2021/09/12 04:36:09;;;;;;;2.72;1.67;;;;;;;13.59;77.05;100811.09;5027419;28;20029;-76
2021/09/12 04:38:34;;;;;;;3.67;1.50;;;;;;;13.52;77.29;100811.50;5029153;28;20108;-76
2021/09/12 04:41:01;;;;;;;2.88;1.40;;;;;;;13.53;77.27;100815.94;5024843;28;20056;-76
2021/09/12 04:43:27;;;;;;;2.22;1.63;;;;;;;13.52;76.95;100819.03;5026954;28;20056;-76
2021/09/12 04:45:52;;;;;;;3.50;1.65;;;;;;;13.49;77.20;100814.09;5009678;28;20099;-77
2021/09/12 04:48:17;;;;;;;2.50;1.58;;;;;;;13.51;77.58;100812.63;5025067;28;20060;-77
2021/09/12 04:50:43;;;;;;;2.55;1.83;;;;;;;13.49;77.69;100819.66;5032611;28;20033;-76
2021/09/12 04:53:09;;;;;;;5.13;1.60;;;;;;;13.45;77.81;100821.38;5019376;28;20037;-78
2021/09/12 04:55:34;;;;;;;3.97;1.63;;;;;;;13.44;77.64;100817.78;5011670;28;20033;-77
2021/09/12 04:58:00;;;;;;;3.15;1.80;;;;;;;13.44;78.01;100820.56;5000639;28;20029;-77
2021/09/12 05:00:25;;;;;;;2.97;1.60;;;;;;;13.41;77.75;100821.19;5021403;28;20037;-77
2021/09/12 05:02:51;;;;;;;1.92;1.60;;;;;;;13.43;77.74;100821.72;5022456;28;20038;-76
2021/09/12 05:05:16;;;;;;;2.83;1.30;;;;;;;13.38;77.79;100814.25;5030801;28;20034;-76
2021/09/12 05:07:41;;;;;;;4.05;1.48;;;;;;;13.38;77.60;100816.22;5033385;28;20036;-76
2021/09/12 05:10:07;;;;;;;3.28;1.40;;;;;;;13.37;77.57;100822.91;5025874;28;20030;-76
2021/09/12 05:12:33;;;;;;;3.78;1.52;;;;;;;13.38;77.51;100819.81;5025548;28;20393;-76
2021/09/12 05:14:58;;;;;;;3.42;1.60;;;;;;;13.36;77.51;100821.25;5025200;28;20040;-76
2021/09/12 05:17:24;;;;;;;2.75;1.50;;;;;;;13.29;77.60;100815.25;5034248;28;20040;-76
2021/09/12 05:19:49;;;;;;;3.03;1.85;;;;;;;13.28;78.01;100819.16;5021055;28;20040;-76
2021/09/12 05:22:15;;;;;;;1.83;1.42;;;;;;;13.29;77.83;100820.81;5028026;28;20049;-76
2021/09/12 05:24:40;;;;;;;3.42;1.38;;;;;;;13.22;77.88;100820.38;5029672;28;20057;-77
2021/09/12 05:27:06;;;;;;;3.03;1.70;;;;;;;13.23;77.70;100816.44;5015662;28;20056;-76
2021/09/12 05:29:31;;;;;;;2.78;1.67;;;;;;;13.22;77.91;100820.38;5047080;28;20048;-76
2021/09/12 05:31:57;;;;;;;3.53;1.90;;;;;;;13.19;77.94;100832.94;5048948;28;20029;-76
2021/09/12 05:34:22;;;;;;;3.58;1.50;;;;;;;13.13;78.22;100836.97;5020151;28;20059;-76
2021/09/12 05:36:48;;;;;;;4.20;1.55;;;;;;;13.15;78.31;100831.91;5029407;28;20054;-76
2021/09/12 05:39:13;;;;;;;2.47;1.48;;;;;;;13.10;77.94;100830.03;5031541;28;20092;-77
2021/09/12 05:41:39;;;;;;;2.80;1.52;;;;;;;13.13;78.30;100823.84;5020210;28;20505;-77
2021/09/12 05:44:04;;;;;;;3.35;1.40;;;;;;;13.10;77.95;100816.09;5010345;28;20041;-76
2021/09/12 05:46:30;;;;;;;2.63;1.40;;;;;;;13.12;78.21;100826.91;5017588;28;20156;-76
2021/09/12 05:48:55;;;;;;;3.00;1.60;;;;;;;13.10;78.20;100818.06;5033150;28;20033;-76
2021/09/12 05:51:21;;;;;;;2.45;1.40;;;;;;;13.08;78.37;100817.53;5034673;28;20041;-76
2021/09/12 05:53:46;;;;;;;2.45;1.40;;;;;;;13.10;77.97;100818.06;5030536;28;20569;-76
2021/09/12 05:56:12;;;;;;;3.33;1.40;;;;;;;13.07;78.34;100813.91;5023935;28;20034;-76
2021/09/12 05:58:37;;;;;;;2.55;1.40;;;;;;;13.10;78.36;100806.91;5027744;28;20040;-76
2021/09/12 06:01:03;;;;;;;1.33;1.23;;;;;;;13.12;78.92;100805.47;5033500;28;20068;-76
2021/09/12 06:03:28;;;;;;;1.48;1.27;;;;;;;13.14;78.90;100822.69;5033995;28;20517;-76
2021/09/12 06:05:53;;;;;;;2.63;1.40;;;;;;;13.14;78.95;100810.72;5028873;28;20540;-76
2021/09/12 06:08:19;;;;;;;2.30;1.25;;;;;;;13.19;78.52;100814.25;5028011;28;20025;-76
2021/09/12 06:10:45;;;;;;;1.67;1.30;;;;;;;13.22;78.69;100817.56;5025691;28;20490;-76
2021/09/12 06:13:10;;;;;;;4.68;1.60;;;;;;;13.23;78.53;100822.00;5024381;28;20033;-76
2021/09/12 06:15:36;;;;;;;3.78;1.40;;;;;;;13.29;79.06;100824.47;5024036;28;20045;-76
2021/09/12 06:18:01;;;;;;;2.60;1.30;;;;;;;13.30;79.15;100822.50;5029057;28;20041;-76
2021/09/12 06:20:27;;;;;;;2.15;1.30;;;;;;;13.33;78.84;100824.66;5036188;28;20037;-76
2021/09/12 06:22:53;;;;;;;2.65;1.30;;;;;;;13.37;78.66;100822.91;5036279;28;20429;-76
2021/09/12 06:25:19;;;;;;;2.03;1.30;;;;;;;13.37;78.71;100829.34;5025308;28;20037;-77
2021/09/12 06:27:45;;;;;;;3.35;1.17;;;;;;;13.41;79.25;100826.75;5033448;28;20034;-75
2021/09/12 06:30:11;;;;;;;1.58;1.33;;;;;;;13.51;79.25;100825.75;5023267;28;20038;-74
2021/09/12 06:32:36;;;;;;;1.73;1.30;;;;;;;13.57;79.32;100830.13;5024165;28;20078;-74
2021/09/12 06:35:43;;;;;;;1.65;1.38;;;;;;;13.73;79.27;100834.25;5025776;28;20030;-80
2021/09/12 06:54:41;;;;;;;3.75;1.25;;;;;;;14.63;80.72;100847.88;4860443;29;20510;-77
2021/09/12 06:57:06;;;;;;;2.88;1.50;;;;;;;14.70;80.38;100859.44;4863738;29;20045;-77
2021/09/12 06:59:31;;;;;;;2.17;1.70;;;;;;;14.74;79.88;100849.31;4862747;29;20049;-77
2021/09/12 07:01:57;;;;;;;3.20;1.55;;;;;;;14.81;79.57;100846.88;4836547;29;20041;-77
2021/09/12 07:04:22;;;;;;;2.60;1.60;;;;;;;14.86;79.24;100846.78;4850879;29;20056;-78
2021/09/12 07:06:48;;;;;;;2.80;1.50;;;;;;;14.95;79.58;100849.66;4865272;29;20046;-78
2021/09/12 07:09:13;;;;;;;2.58;1.58;;;;;;;15.04;79.56;100853.34;4867548;29;20108;-78
2021/09/12 07:11:39;;;;;;;2.38;1.70;;;;;;;15.10;79.48;100846.50;4864736;29;20038;-78
2021/09/12 07:14:05;;;;;;;2.20;1.65;;;;;;;15.17;79.61;100857.25;4851267;29;20097;-78
2021/09/12 07:16:30;;;;;;;3.65;1.58;;;;;;;15.26;79.54;100854.50;4878629;29;20047;-79
2021/09/12 07:18:56;;;;;;;2.80;1.65;;;;;;;15.31;79.90;100852.41;4903703;29;20044;-78
2021/09/12 07:21:22;;;;;;;4.03;1.80;;;;;;;15.36;79.57;100857.88;4930722;29;20047;-80
2021/09/12 07:23:47;;;;;;;2.28;1.60;;;;;;;15.42;79.82;100859.41;4909131;29;20083;-80
2021/09/12 07:26:12;;;;;;;3.30;1.85;;;;;;;15.49;79.60;100849.72;4945457;28;20403;-80
2021/09/12 07:28:38;;;;;;;2.95;1.70;;;;;;;15.54;79.54;100841.22;4992472;28;20030;-79
2021/09/12 07:31:04;;;;;;;3.25;1.83;;;;;;;15.59;79.78;100841.09;5002937;28;20073;-79
2021/09/12 07:33:29;;;;;;;2.92;1.70;;;;;;;15.64;79.71;100854.94;5035874;28;20038;-78
2021/09/12 07:35:55;;;;;;;2.95;2.20;;;;;;;15.69;79.39;100857.66;4991912;28;20029;-78
2021/09/12 07:38:20;;;;;;;3.38;1.70;;;;;;;15.75;79.54;100855.53;5029048;28;20057;-78
2021/09/12 07:40:46;;;;;;;5.22;1.80;;;;;;;15.78;79.32;100852.94;5046273;28;20048;-78
2021/09/12 07:43:11;;;;;;;2.92;1.65;;;;;;;15.84;79.35;100854.44;5035701;28;20037;-78
2021/09/12 07:45:37;;;;;;;2.53;2.08;;;;;;;15.89;79.12;100845.06;5033344;28;20033;-78
2021/09/12 07:48:02;;;;;;;3.53;1.80;;;;;;;15.94;79.12;100849.72;5033421;28;20111;-78
2021/09/12 07:50:28;;;;;;;2.88;1.70;;;;;;;15.99;79.01;100849.56;5005411;28;20037;-78
2021/09/12 07:52:53;;;;;;;3.20;1.80;;;;;;;16.03;79.04;100850.59;4995971;28;20059;-78
2021/09/12 07:55:19;;;;;;;2.30;1.77;;;;;;;16.08;78.73;100842.03;5017014;28;20036;-78
2021/09/12 07:57:44;;;;;;;3.63;1.70;;;;;;;16.12;78.71;100848.63;5015697;28;20060;-78
2021/09/12 08:00:12;;;;;;;2.58;1.80;;;;;;;16.17;78.73;100854.09;5028325;28;20393;-78
2021/09/12 08:02:38;;;;;;;2.20;1.67;;;;;;;16.21;78.58;100855.09;5015699;28;20108;-78
2021/09/12 08:05:03;;;;;;;4.07;2.00;;;;;;;16.27;78.48;100856.63;5009211;28;20056;-78
2021/09/12 08:07:29;;;;;;;3.78;2.00;;;;;;;16.33;78.37;100862.91;5028847;28;20032;-78
2021/09/12 08:09:54;;;;;;;3.75;1.95;;;;;;;16.38;78.18;100853.50;5023331;28;20041;-78
2021/09/12 08:12:20;;;;;;;2.97;1.90;;;;;;;16.45;77.92;100851.06;5033241;28;20437;-78
2021/09/12 08:14:45;;;;;;;2.75;1.95;;;;;;;16.50;77.92;100857.34;4990200;28;20080;-79
2021/09/12 08:17:11;;;;;;;2.75;1.70;;;;;;;16.58;77.50;100855.72;5016513;28;20034;-79
2021/09/12 08:19:36;;;;;;;4.30;1.98;;;;;;;16.65;77.44;100858.03;5046362;28;20026;-79
2021/09/12 08:22:02;;;;;;;3.67;1.80;;;;;;;16.72;77.40;100859.22;5024840;28;20541;-78
2021/09/12 08:24:28;;;;;;;4.47;1.83;;;;;;;16.80;77.36;100856.75;5027849;28;20646;-78
2021/09/12 08:26:54;;;;;;;2.72;1.70;;;;;;;16.88;76.86;100853.16;5027887;28;20037;-79
2021/09/12 08:29:19;;;;;;;2.13;1.67;;;;;;;16.95;77.45;100856.31;5020661;28;20034;-78
2021/09/12 08:31:45;;;;;;;2.13;1.80;;;;;;;17.01;78.24;100857.78;5021457;28;20065;-78
2021/09/12 08:34:11;;;;;;;2.80;1.90;;;;;;;17.08;78.13;100866.56;5027000;28;20057;-76
2021/09/12 08:36:36;;;;;;;2.88;1.80;;;;;;;17.15;78.02;100866.88;4980218;28;20490;-78
2021/09/12 08:39:02;;;;;;;2.85;1.60;;;;;;;17.25;77.21;100862.09;5031812;28;20548;-75
2021/09/12 08:41:29;;;;;;;4.05;1.90;;;;;;;17.36;77.51;100869.03;5018260;28;20480;-74
2021/09/12 08:43:54;;;;;;;2.70;1.70;;;;;;;17.46;76.42;100867.84;4991994;28;20470;-74
2021/09/12 08:46:20;;;;;;;2.25;1.58;;;;;;;17.57;75.61;100864.34;5000247;28;20033;-75
2021/09/12 08:48:45;;;;;;;4.40;1.70;;;;;;;17.70;77.09;100862.53;5009488;28;20034;-76
2021/09/12 08:51:11;;;;;;;3.13;1.52;;;;;;;17.85;76.86;100875.25;5013026;28;20025;-75
2021/09/12 08:53:40;;;;;;;2.70;1.27;;;;;;;17.99;75.64;100864.63;5013764;28;20034;-78
2021/09/12 08:56:09;;;;;;;2.97;1.60;;;;;;;18.15;75.82;100862.09;4999361;28;20048;-78
2021/09/12 08:58:35;;;;;;;4.90;1.50;;;;;;;18.31;75.69;100856.75;5000493;28;20033;-77
2021/09/12 09:01:01;;;;;;;4.95;1.20;;;;;;;18.49;74.87;100861.09;5001268;28;20030;-78
2021/09/12 09:03:41;;;;;;;3.30;1.38;;;;;;;18.72;73.73;100860.78;5026760;28;20033;-76
2021/09/12 09:06:19;;;;;;;1.95;1.20;;;;;;;18.87;73.48;100860.25;5006157;28;20394;-77
2021/09/12 09:08:49;;;;;;;2.95;1.40;;;;;;;19.07;72.76;100857.78;5019301;28;20044;-76
2021/09/12 09:11:14;;;;;;;3.90;1.48;;;;;;;19.26;72.68;100858.13;5015189;28;20098;-77
2021/09/12 09:13:40;;;;;;;3.47;1.35;;;;;;;19.46;71.90;100862.06;4994259;28;20443;-77
2021/09/12 09:16:25;;;;;;;4.63;1.80;;;;;;;19.66;71.31;100860.41;5027620;28;20041;-77
2021/09/12 09:18:50;;;;;;;2.28;1.10;;;;;;;19.88;70.99;100859.19;5001410;28;20104;-77
2021/09/12 09:21:30;;;;;;;1.92;1.08;;;;;;;20.07;71.20;100861.47;5000051;28;20116;-78
2021/09/12 09:24:06;;;;;;;1.63;0.90;;;;;;;20.25;70.47;100864.88;4991315;28;20032;-80
2021/09/12 09:26:47;;;;;;;2.88;1.40;;;;;;;20.44;69.76;100864.31;5019812;28;20034;-80
2021/09/12 09:29:13;;;;;;;4.65;1.10;;;;;;;20.66;69.04;100869.50;4989721;28;20033;-79
2021/09/12 09:31:39;;;;;;;2.58;1.17;;;;;;;20.88;69.12;100862.53;4987502;28;20029;-78
2021/09/12 09:34:15;;;;;;;2.72;1.00;;;;;;;21.09;68.00;100870.00;5019205;28;20520;-78
2021/09/12 09:36:40;;;;;;;5.90;1.35;;;;;;;21.28;68.12;100864.53;5024843;28;20054;-78
2021/09/12 09:39:06;;;;;;;2.75;1.08;;;;;;;21.47;67.28;100863.91;5015326;28;20254;-78
2021/09/12 09:41:37;;;;;;;2.00;1.05;;;;;;;21.61;67.20;100857.84;5031659;28;20106;-78
2021/09/12 09:44:13;;;;;;;2.78;1.08;;;;;;;21.79;66.62;100855.53;4999610;28;20030;-76
2021/09/12 09:46:41;;;;;;;1.60;0.70;;;;;;;21.91;64.44;100858.28;5025453;28;20033;-74
2021/09/12 09:49:26;;;;;;;7.60;1.00;;;;;;;22.07;64.23;100855.47;5026417;28;20108;-78
2021/09/12 09:51:54;;;;;;;3.17;0.90;;;;;;;22.24;64.10;100854.31;5025701;28;20048;-78
2021/09/12 09:54:27;;;;;;;1.23;0.75;;;;;;;22.33;63.98;100854.13;5018314;28;20398;-78
2021/09/12 09:56:52;;;;;;;1.55;0.80;;;;;;;22.40;62.29;100841.00;5030965;28;20145;-78
2021/09/12 09:59:20;;;;;;;0.88;0.75;;;;;;;22.50;61.45;100840.41;5025369;28;20041;-77
2021/09/12 10:01:52;;;;;;;3.05;0.65;;;;;;;22.61;62.13;100842.69;4998928;28;20113;-79
2021/09/12 10:04:23;;;;;;;2.88;0.90;;;;;;;22.73;62.41;100840.56;5014939;28;20034;-77
2021/09/12 10:06:49;;;;;;;3.83;0.75;;;;;;;22.87;62.46;100840.09;5024459;28;20103;-76
2021/09/12 10:09:15;;;;;;;2.88;0.82;;;;;;;22.95;60.98;100832.53;5033903;28;20089;-78
2021/09/12 10:11:50;;;;;;;5.18;0.82;;;;;;;23.07;60.76;100837.31;5022044;28;20090;-78
2021/09/12 10:14:18;;;;;;;1.83;0.70;;;;;;;23.14;59.40;100831.78;5021697;28;20390;-78
2021/09/12 10:16:44;;;;;;;2.08;0.68;;;;;;;23.22;58.89;100825.06;5003983;28;20061;-80
2021/09/12 10:19:09;;;;;;;1.20;0.60;;;;;;;23.35;60.34;100822.91;4997882;28;20485;-82
2021/09/12 10:21:35;;;;;;;1.45;0.60;;;;;;;23.37;60.31;100834.69;5031484;28;20048;-76
2021/09/12 10:24:05;;;;;;;1.55;0.63;;;;;;;23.54;60.23;100831.41;5000810;28;20132;-77
2021/09/12 10:26:40;;;;;;;1.73;0.60;;;;;;;23.67;59.98;100831.22;4998783;28;20084;-78
2021/09/12 10:29:26;;;;;;;2.83;2.15;;;;;;;23.79;59.55;100823.41;5007810;28;20100;-76
2021/09/12 10:31:51;;;;;;;3.05;0.98;;;;;;;23.79;54.84;100825.41;5027857;28;20033;-76
2021/09/12 10:34:17;;;;;;;2.53;1.77;;;;;;;23.91;56.49;100816.72;5014198;28;20060;-75
2021/09/12 10:36:45;;;;;;;1.92;1.27;;;;;;;24.07;57.09;100816.59;5014703;28;20042;-75
2021/09/12 10:39:20;;;;;;;4.30;2.65;;;;;;;24.22;57.39;100817.66;5016493;28;20049;-76
2021/09/12 10:42:11;;;;;;;3.65;2.03;;;;;;;24.38;56.11;100817.53;5019367;28;20033;-76
2021/09/12 10:44:37;;;;;;;3.85;1.40;;;;;;;24.55;55.42;100819.84;5034587;28;20498;-77
2021/09/12 10:47:21;;;;;;;2.85;1.10;;;;;;;24.70;53.56;100818.84;5034515;28;20134;-79
2021/09/12 10:49:46;;;;;;;2.17;0.88;;;;;;;24.82;53.51;100825.50;5030763;28;20022;-72
2021/09/12 10:52:47;;;;;;;0.95;0.70;;;;;;;24.81;52.86;100816.16;5006679;28;20040;-72
2021/09/12 10:55:12;;;;;;;1.25;0.60;;;;;;;24.70;52.80;100818.84;5031897;28;20026;-72
2021/09/12 10:57:37;;;;;;;1.75;0.55;;;;;;;24.61;52.80;100815.47;5028184;28;20021;-72
2021/09/12 11:00:07;;;;;;;2.22;0.60;;;;;;;24.33;53.10;100810.16;5034452;28;20033;-72
2021/09/12 11:02:33;;;;;;;1.63;0.40;;;;;;;24.36;52.79;100808.56;5019328;28;20034;-72
2021/09/12 11:04:58;;;;;;;0.88;0.40;;;;;;;24.10;52.70;100813.03;5018642;28;20030;-72
2021/09/12 11:07:24;;;;;;;0.70;0.47;;;;;;;23.88;52.83;100819.50;5020059;28;20036;-71
2021/09/12 11:09:49;;;;;;;1.10;0.50;;;;;;;23.80;52.78;100812.88;5034287;28;20033;-72
2021/09/12 11:12:15;;;;;;;0.75;0.50;;;;;;;23.71;53.72;100804.63;5017610;28;20033;-71
2021/09/12 11:14:40;;;;;;;1.65;0.40;;;;;;;23.67;55.18;100806.53;5029806;28;20018;-72
2021/09/12 11:17:09;;;;;;;1.75;0.57;;;;;;;23.54;53.94;100813.56;5018543;28;20034;-72
2021/09/12 11:19:35;;;;;;;1.58;0.40;;;;;;;23.50;54.45;100801.34;5022627;28;20029;-72
2021/09/12 11:22:01;;;;;;;1.05;0.50;;;;;;;23.58;54.60;100806.78;5002181;28;20512;-72
2021/09/12 11:24:27;;;;;;;0.88;0.50;;;;;;;23.57;54.97;100795.81;5034245;28;20470;-72
2021/09/12 11:26:59;;;;;;;1.15;0.40;;;;;;;23.68;55.03;100796.00;5016405;28;20052;-72
2021/09/12 11:29:26;;;;;;;1.83;0.45;;;;;;;23.80;55.37;100791.00;5026048;28;20056;-72
2021/09/12 11:31:52;;;;;;;1.02;0.50;;;;;;;23.89;54.75;100790.75;5033789;28;20040;-72
2021/09/12 11:34:19;;;;;;;1.63;0.50;;;;;;;23.91;53.46;100782.69;5028883;28;20053;-73
2021/09/12 11:37:05;;;;;;;0.90;0.38;;;;;;;23.98;54.18;100782.00;5028211;28;20078;-73
2021/09/12 11:39:32;;;;;;;0.70;0.50;;;;;;;24.02;53.73;100780.88;5024347;28;20047;-72